sensor_id;sensor_type;location;lat;lon;timestamp;P1;durP1;ratioP1;P2;durP2;ratioP2
52184;SDS011;38160;52.876;18.778;2023-02-18T05:47:53;15.50;;;4.30;;
52184;SDS011;38160;52.876;18.778;2023-02-18T05:50:30;16.20;;;4.30;;
52184;SDS011;38160;52.876;18.778;2023-02-18T05:53:05;16.00;;;4.00;;
52184;SDS011;38160;52.876;18.778;2023-02-18T05:55:39;12.00;;;4.00;;
52184;SDS011;38160;52.876;18.778;2023-02-18T05:58:13;18.80;;;4.50;;
52184;SDS011;38160;52.876;18.778;2023-02-18T06:00:47;14.30;;;4.10;;
52184;SDS011;38160;52.876;18.778;2023-02-18T06:03:21;16.90;;;4.70;;
52184;SDS011;38160;52.876;18.778;2023-02-18T06:05:55;11.00;;;4.10;;
52184;SDS011;38160;52.876;18.778;2023-02-18T06:08:28;24.90;;;5.50;;
52184;SDS011;38160;52.876;18.778;2023-02-18T06:11:02;30.70;;;11.60;;
52184;SDS011;38160;52.876;18.778;2023-02-18T06:13:36;17.80;;;5.00;;
52184;SDS011;38160;52.876;18.778;2023-02-18T06:16:09;13.30;;;3.90;;
52184;SDS011;38160;52.876;18.778;2023-02-18T06:18:43;13.80;;;3.90;;
52184;SDS011;38160;52.876;18.778;2023-02-18T06:21:17;15.90;;;4.30;;
52184;SDS011;38160;52.876;18.778;2023-02-18T06:23:50;15.60;;;4.00;;
52184;SDS011;38160;52.876;18.778;2023-02-18T06:26:25;17.40;;;5.40;;
52184;SDS011;38160;52.876;18.778;2023-02-18T06:29:02;14.30;;;4.00;;
52184;SDS011;38160;52.876;18.778;2023-02-18T06:31:35;17.00;;;4.20;;
52184;SDS011;38160;52.876;18.778;2023-02-18T06:34:09;13.90;;;4.10;;
52184;SDS011;38160;52.876;18.778;2023-02-18T06:36:42;14.80;;;4.20;;
52184;SDS011;38160;52.876;18.778;2023-02-18T06:39:16;14.20;;;4.80;;
52184;SDS011;38160;52.876;18.778;2023-02-18T06:41:50;12.30;;;3.50;;
52184;SDS011;38160;52.876;18.778;2023-02-18T06:44:23;17.60;;;3.90;;
52184;SDS011;38160;52.876;18.778;2023-02-18T06:46:57;13.20;;;3.90;;
52184;SDS011;38160;52.876;18.778;2023-02-18T06:49:31;15.40;;;4.50;;
52184;SDS011;38160;52.876;18.778;2023-02-18T06:52:04;22.60;;;4.60;;
52184;SDS011;38160;52.876;18.778;2023-02-18T06:54:47;19.50;;;4.40;;
52184;SDS011;38160;52.876;18.778;2023-02-18T07:00:15;19.20;;;4.50;;
52184;SDS011;38160;52.876;18.778;2023-02-18T07:02:54;17.90;;;4.70;;
52184;SDS011;38160;52.876;18.778;2023-02-18T07:05:28;16.20;;;4.70;;
52184;SDS011;38160;52.876;18.778;2023-02-18T07:08:02;16.40;;;5.10;;
52184;SDS011;38160;52.876;18.778;2023-02-18T07:10:36;20.90;;;5.00;;
52184;SDS011;38160;52.876;18.778;2023-02-18T07:13:10;14.40;;;4.30;;
52184;SDS011;38160;52.876;18.778;2023-02-18T07:16:01;19.90;;;4.40;;
52184;SDS011;38160;52.876;18.778;2023-02-18T07:18:35;16.30;;;4.50;;
52184;SDS011;38160;52.876;18.778;2023-02-18T07:21:09;18.80;;;4.60;;
52184;SDS011;38160;52.876;18.778;2023-02-18T07:23:42;19.40;;;5.40;;
52184;SDS011;38160;52.876;18.778;2023-02-18T07:26:20;14.10;;;4.50;;
52184;SDS011;38160;52.876;18.778;2023-02-18T07:28:54;15.20;;;4.20;;
52184;SDS011;38160;52.876;18.778;2023-02-18T07:31:27;14.30;;;5.30;;
52184;SDS011;38160;52.876;18.778;2023-02-18T07:34:01;17.70;;;4.20;;
52184;SDS011;38160;52.876;18.778;2023-02-18T07:36:34;17.60;;;5.90;;
52184;SDS011;38160;52.876;18.778;2023-02-18T07:39:08;19.10;;;5.20;;
52184;SDS011;38160;52.876;18.778;2023-02-18T07:41:42;16.00;;;4.40;;
52184;SDS011;38160;52.876;18.778;2023-02-18T07:44:19;20.50;;;5.00;;
52184;SDS011;38160;52.876;18.778;2023-02-18T07:46:53;18.80;;;5.30;;
52184;SDS011;38160;52.876;18.778;2023-02-18T07:49:26;24.70;;;6.80;;
52184;SDS011;38160;52.876;18.778;2023-02-18T07:52:01;19.50;;;6.00;;
52184;SDS011;38160;52.876;18.778;2023-02-18T07:54:37;19.90;;;5.70;;
52184;SDS011;38160;52.876;18.778;2023-02-18T07:57:14;22.30;;;6.40;;
52184;SDS011;38160;52.876;18.778;2023-02-18T07:59:50;18.70;;;5.50;;
52184;SDS011;38160;52.876;18.778;2023-02-18T08:02:24;26.90;;;6.80;;
52184;SDS011;38160;52.876;18.778;2023-02-18T08:04:57;18.60;;;6.30;;
52184;SDS011;38160;52.876;18.778;2023-02-18T08:07:31;27.20;;;6.10;;
52184;SDS011;38160;52.876;18.778;2023-02-18T08:10:06;21.00;;;5.90;;
52184;SDS011;38160;52.876;18.778;2023-02-18T08:12:41;19.10;;;4.90;;
52184;SDS011;38160;52.876;18.778;2023-02-18T08:15:15;20.90;;;6.00;;
52184;SDS011;38160;52.876;18.778;2023-02-18T08:17:49;21.30;;;5.50;;
52184;SDS011;38160;52.876;18.778;2023-02-18T08:20:23;22.00;;;5.90;;
52184;SDS011;38160;52.876;18.778;2023-02-18T08:22:57;19.60;;;5.20;;
52184;SDS011;38160;52.876;18.778;2023-02-18T08:25:34;17.30;;;4.20;;
52184;SDS011;38160;52.876;18.778;2023-02-18T08:28:07;16.50;;;4.70;;
52184;SDS011;38160;52.876;18.778;2023-02-18T08:30:43;16.60;;;5.30;;
52184;SDS011;38160;52.876;18.778;2023-02-18T08:33:17;22.00;;;4.40;;
52184;SDS011;38160;52.876;18.778;2023-02-18T08:35:52;18.20;;;4.90;;
52184;SDS011;38160;52.876;18.778;2023-02-18T08:39:02;21.60;;;5.30;;
52184;SDS011;38160;52.876;18.778;2023-02-18T08:41:35;26.00;;;5.40;;
52184;SDS011;38160;52.876;18.778;2023-02-18T08:44:09;17.90;;;4.30;;
52184;SDS011;38160;52.876;18.778;2023-02-18T08:46:43;15.80;;;4.60;;
52184;SDS011;38160;52.876;18.778;2023-02-18T08:49:18;17.20;;;4.60;;
52184;SDS011;38160;52.876;18.778;2023-02-18T08:51:54;18.70;;;4.90;;
52184;SDS011;38160;52.876;18.778;2023-02-18T08:54:28;15.80;;;5.00;;
52184;SDS011;38160;52.876;18.778;2023-02-18T08:57:02;15.40;;;4.90;;
52184;SDS011;38160;52.876;18.778;2023-02-18T08:59:36;17.40;;;3.70;;
52184;SDS011;38160;52.876;18.778;2023-02-18T09:02:09;17.80;;;5.30;;
52184;SDS011;38160;52.876;18.778;2023-02-18T09:04:45;21.10;;;4.60;;
52184;SDS011;38160;52.876;18.778;2023-02-18T09:07:21;21.00;;;4.80;;
52184;SDS011;38160;52.876;18.778;2023-02-18T09:09:58;18.20;;;4.60;;
52184;SDS011;38160;52.876;18.778;2023-02-18T09:12:32;20.90;;;5.20;;
52184;SDS011;38160;52.876;18.778;2023-02-18T09:15:08;17.10;;;5.40;;
52184;SDS011;38160;52.876;18.778;2023-02-18T09:17:41;22.30;;;5.20;;
52184;SDS011;38160;52.876;18.778;2023-02-18T09:20:15;18.70;;;4.30;;
52184;SDS011;38160;52.876;18.778;2023-02-18T09:22:48;12.60;;;3.70;;
52184;SDS011;38160;52.876;18.778;2023-02-18T09:25:22;14.80;;;4.00;;
52184;SDS011;38160;52.876;18.778;2023-02-18T09:27:56;13.30;;;3.90;;
52184;SDS011;38160;52.876;18.778;2023-02-18T09:30:29;18.90;;;4.70;;
52184;SDS011;38160;52.876;18.778;2023-02-18T09:33:03;20.30;;;5.50;;
52184;SDS011;38160;52.876;18.778;2023-02-18T09:35:38;18.60;;;4.40;;
52184;SDS011;38160;52.876;18.778;2023-02-18T09:38:13;17.40;;;4.60;;
52184;SDS011;38160;52.876;18.778;2023-02-18T09:40:49;13.10;;;4.20;;
52184;SDS011;38160;52.876;18.778;2023-02-18T09:43:26;19.10;;;4.90;;
52184;SDS011;38160;52.876;18.778;2023-02-18T09:46:03;22.70;;;4.60;;
52184;SDS011;38160;52.876;18.778;2023-02-18T09:48:48;21.70;;;5.30;;
52184;SDS011;38160;52.876;18.778;2023-02-18T09:51:23;17.20;;;5.00;;
52184;SDS011;38160;52.876;18.778;2023-02-18T09:53:56;15.00;;;4.80;;
52184;SDS011;38160;52.876;18.778;2023-02-18T09:56:31;19.60;;;5.20;;
52184;SDS011;38160;52.876;18.778;2023-02-18T09:59:10;16.70;;;4.70;;
52184;SDS011;38160;52.876;18.778;2023-02-18T10:01:48;21.60;;;5.80;;
52184;SDS011;38160;52.876;18.778;2023-02-18T10:04:26;19.50;;;4.90;;
52184;SDS011;38160;52.876;18.778;2023-02-18T10:07:03;16.50;;;5.00;;
52184;SDS011;38160;52.876;18.778;2023-02-18T10:09:37;30.20;;;6.50;;
52184;SDS011;38160;52.876;18.778;2023-02-18T10:12:12;23.40;;;5.70;;
52184;SDS011;38160;52.876;18.778;2023-02-18T10:14:50;19.40;;;5.50;;
52184;SDS011;38160;52.876;18.778;2023-02-18T10:17:27;16.90;;;5.50;;
52184;SDS011;38160;52.876;18.778;2023-02-18T10:20:05;19.20;;;5.30;;
52184;SDS011;38160;52.876;18.778;2023-02-18T10:22:47;20.40;;;5.20;;
52184;SDS011;38160;52.876;18.778;2023-02-18T10:25:22;17.50;;;5.10;;
52184;SDS011;38160;52.876;18.778;2023-02-18T10:27:57;18.60;;;5.40;;
52184;SDS011;38160;52.876;18.778;2023-02-18T10:30:34;17.70;;;5.50;;
52184;SDS011;38160;52.876;18.778;2023-02-18T10:33:16;21.70;;;6.50;;
52184;SDS011;38160;52.876;18.778;2023-02-18T10:36:08;20.80;;;5.60;;
52184;SDS011;38160;52.876;18.778;2023-02-18T10:41:35;23.50;;;5.50;;
52184;SDS011;38160;52.876;18.778;2023-02-18T10:44:19;19.90;;;5.30;;
52184;SDS011;38160;52.876;18.778;2023-02-18T10:47:05;23.20;;;5.80;;
52184;SDS011;38160;52.876;18.778;2023-02-18T10:49:53;20.70;;;5.50;;
52184;SDS011;38160;52.876;18.778;2023-02-18T10:52:29;20.10;;;5.90;;
52184;SDS011;38160;52.876;18.778;2023-02-18T10:55:09;18.90;;;5.30;;
52184;SDS011;38160;52.876;18.778;2023-02-18T10:57:48;23.00;;;5.00;;
52184;SDS011;38160;52.876;18.778;2023-02-18T11:00:24;18.90;;;5.20;;
52184;SDS011;38160;52.876;18.778;2023-02-18T11:03:10;17.00;;;5.60;;
52184;SDS011;38160;52.876;18.778;2023-02-18T11:05:49;16.70;;;5.40;;
52184;SDS011;38160;52.876;18.778;2023-02-18T11:08:24;18.40;;;4.90;;
52184;SDS011;38160;52.876;18.778;2023-02-18T11:10:59;21.50;;;5.80;;
52184;SDS011;38160;52.876;18.778;2023-02-18T11:13:45;24.40;;;6.20;;
52184;SDS011;38160;52.876;18.778;2023-02-18T11:16:35;22.00;;;6.10;;
52184;SDS011;38160;52.876;18.778;2023-02-18T11:22:11;17.40;;;4.80;;
52184;SDS011;38160;52.876;18.778;2023-02-18T11:24:53;13.90;;;3.90;;
52184;SDS011;38160;52.876;18.778;2023-02-18T11:27:29;17.40;;;4.20;;
52184;SDS011;38160;52.876;18.778;2023-02-18T11:30:16;20.00;;;4.80;;
52184;SDS011;38160;52.876;18.778;2023-02-18T11:32:56;16.50;;;4.70;;
52184;SDS011;38160;52.876;18.778;2023-02-18T11:35:35;27.50;;;5.40;;
52184;SDS011;38160;52.876;18.778;2023-02-18T11:38:15;14.20;;;5.30;;
52184;SDS011;38160;52.876;18.778;2023-02-18T11:40:54;19.50;;;4.80;;
52184;SDS011;38160;52.876;18.778;2023-02-18T11:43:33;14.10;;;4.30;;
52184;SDS011;38160;52.876;18.778;2023-02-18T11:46:10;16.30;;;4.60;;
52184;SDS011;38160;52.876;18.778;2023-02-18T11:48:45;13.00;;;4.40;;
52184;SDS011;38160;52.876;18.778;2023-02-18T11:51:20;12.00;;;4.40;;
52184;SDS011;38160;52.876;18.778;2023-02-18T11:54:00;16.70;;;5.20;;
52184;SDS011;38160;52.876;18.778;2023-02-18T11:56:38;21.10;;;5.80;;
52184;SDS011;38160;52.876;18.778;2023-02-18T11:59:11;16.90;;;5.20;;
52184;SDS011;38160;52.876;18.778;2023-02-18T12:01:46;16.90;;;5.10;;
52184;SDS011;38160;52.876;18.778;2023-02-18T12:04:25;11.90;;;3.80;;
52184;SDS011;38160;52.876;18.778;2023-02-18T12:07:10;18.00;;;4.90;;
52184;SDS011;38160;52.876;18.778;2023-02-18T12:09:49;14.80;;;4.00;;
52184;SDS011;38160;52.876;18.778;2023-02-18T12:12:26;19.10;;;4.40;;
52184;SDS011;38160;52.876;18.778;2023-02-18T12:15:02;16.40;;;4.20;;
52184;SDS011;38160;52.876;18.778;2023-02-18T12:17:48;12.80;;;4.20;;
52184;SDS011;38160;52.876;18.778;2023-02-18T12:23:35;19.00;;;5.40;;
52184;SDS011;38160;52.876;18.778;2023-02-18T12:26:20;18.10;;;4.60;;
52184;SDS011;38160;52.876;18.778;2023-02-18T12:32:16;17.30;;;4.90;;
52184;SDS011;38160;52.876;18.778;2023-02-18T12:35:08;19.00;;;5.50;;
52184;SDS011;38160;52.876;18.778;2023-02-18T12:37:55;17.10;;;5.40;;
52184;SDS011;38160;52.876;18.778;2023-02-18T12:40:45;19.70;;;5.00;;
52184;SDS011;38160;52.876;18.778;2023-02-18T12:43:31;18.40;;;6.00;;
52184;SDS011;38160;52.876;18.778;2023-02-18T12:46:22;17.10;;;4.30;;
52184;SDS011;38160;52.876;18.778;2023-02-18T12:49:12;16.30;;;4.90;;
52184;SDS011;38160;52.876;18.778;2023-02-18T12:51:58;18.90;;;5.30;;
52184;SDS011;38160;52.876;18.778;2023-02-18T12:54:46;14.90;;;5.90;;
52184;SDS011;38160;52.876;18.778;2023-02-18T12:57:54;19.00;;;5.70;;
52184;SDS011;38160;52.876;18.778;2023-02-18T13:00:40;17.60;;;6.20;;
52184;SDS011;38160;52.876;18.778;2023-02-18T13:06:55;20.90;;;5.70;;
52184;SDS011;38160;52.876;18.778;2023-02-18T13:09:50;21.20;;;5.70;;
52184;SDS011;38160;52.876;18.778;2023-02-18T13:12:36;18.40;;;5.60;;
52184;SDS011;38160;52.876;18.778;2023-02-18T13:15:17;16.90;;;6.00;;
52184;SDS011;38160;52.876;18.778;2023-02-18T13:19:01;19.80;;;5.90;;
52184;SDS011;38160;52.876;18.778;2023-02-18T13:21:50;17.00;;;5.90;;
52184;SDS011;38160;52.876;18.778;2023-02-18T13:25:28;17.40;;;5.30;;
52184;SDS011;38160;52.876;18.778;2023-02-18T13:29:08;18.20;;;5.50;;
52184;SDS011;38160;52.876;18.778;2023-02-18T13:32:44;17.10;;;4.90;;
52184;SDS011;38160;52.876;18.778;2023-02-18T13:36:04;13.10;;;5.30;;
52184;SDS011;38160;52.876;18.778;2023-02-18T13:40:02;21.90;;;5.10;;
52184;SDS011;38160;52.876;18.778;2023-02-18T13:43:47;18.20;;;4.90;;
52184;SDS011;38160;52.876;18.778;2023-02-18T13:46:32;15.70;;;5.50;;
52184;SDS011;38160;52.876;18.778;2023-02-18T13:49:21;15.20;;;5.20;;
52184;SDS011;38160;52.876;18.778;2023-02-18T13:51:58;15.30;;;5.30;;
52184;SDS011;38160;52.876;18.778;2023-02-18T13:55:04;26.50;;;6.40;;
52184;SDS011;38160;52.876;18.778;2023-02-18T13:57:39;23.10;;;5.70;;
52184;SDS011;38160;52.876;18.778;2023-02-18T14:00:18;17.30;;;6.60;;
52184;SDS011;38160;52.876;18.778;2023-02-18T14:03:57;20.10;;;7.70;;
52184;SDS011;38160;52.876;18.778;2023-02-18T14:06:35;23.70;;;7.20;;
52184;SDS011;38160;52.876;18.778;2023-02-18T14:21:39;24.60;;;7.50;;
52184;SDS011;38160;52.876;18.778;2023-02-18T14:24:16;23.30;;;6.70;;
52184;SDS011;38160;52.876;18.778;2023-02-18T14:27:21;14.00;;;5.10;;
52184;SDS011;38160;52.876;18.778;2023-02-18T14:30:03;20.80;;;5.50;;
52184;SDS011;38160;52.876;18.778;2023-02-18T14:32:50;17.90;;;4.70;;
52184;SDS011;38160;52.876;18.778;2023-02-18T14:35:33;12.40;;;4.80;;
52184;SDS011;38160;52.876;18.778;2023-02-18T14:38:23;15.60;;;5.60;;
52184;SDS011;38160;52.876;18.778;2023-02-18T14:41:11;11.30;;;4.50;;
52184;SDS011;38160;52.876;18.778;2023-02-18T14:44:19;14.10;;;4.40;;
52184;SDS011;38160;52.876;18.778;2023-02-18T14:47:16;12.50;;;5.10;;
52184;SDS011;38160;52.876;18.778;2023-02-18T14:50:21;14.90;;;5.80;;
52184;SDS011;38160;52.876;18.778;2023-02-18T14:52:58;12.10;;;5.30;;
52184;SDS011;38160;52.876;18.778;2023-02-18T14:55:38;13.30;;;5.40;;
52184;SDS011;38160;52.876;18.778;2023-02-18T14:58:23;13.30;;;4.70;;
52184;SDS011;38160;52.876;18.778;2023-02-18T15:01:15;14.60;;;4.80;;
52184;SDS011;38160;52.876;18.778;2023-02-18T15:04:11;8.70;;;4.30;;
52184;SDS011;38160;52.876;18.778;2023-02-18T15:06:58;12.80;;;4.20;;
52184;SDS011;38160;52.876;18.778;2023-02-18T15:09:43;15.80;;;5.20;;
52184;SDS011;38160;52.876;18.778;2023-02-18T15:12:21;13.90;;;5.10;;
52184;SDS011;38160;52.876;18.778;2023-02-18T15:14:59;14.70;;;4.60;;
52184;SDS011;38160;52.876;18.778;2023-02-18T15:17:38;13.10;;;4.80;;
52184;SDS011;38160;52.876;18.778;2023-02-18T15:20:21;13.30;;;4.80;;
52184;SDS011;38160;52.876;18.778;2023-02-18T15:22:58;11.50;;;5.30;;
52184;SDS011;38160;52.876;18.778;2023-02-18T15:25:34;9.90;;;5.00;;
52184;SDS011;38160;52.876;18.778;2023-02-18T15:28:20;13.10;;;5.60;;
52184;SDS011;38160;52.876;18.778;2023-02-18T15:31:01;12.20;;;5.50;;
52184;SDS011;38160;52.876;18.778;2023-02-18T15:33:45;12.90;;;5.40;;
52184;SDS011;38160;52.876;18.778;2023-02-18T15:36:24;10.80;;;4.80;;
52184;SDS011;38160;52.876;18.778;2023-02-18T15:39:00;14.30;;;5.70;;
52184;SDS011;38160;52.876;18.778;2023-02-18T15:41:37;12.00;;;6.10;;
52184;SDS011;38160;52.876;18.778;2023-02-18T15:44:17;11.80;;;6.50;;
52184;SDS011;38160;52.876;18.778;2023-02-18T15:47:16;14.00;;;5.50;;
52184;SDS011;38160;52.876;18.778;2023-02-18T15:49:53;11.60;;;5.40;;
52184;SDS011;38160;52.876;18.778;2023-02-18T15:52:33;17.80;;;6.70;;
52184;SDS011;38160;52.876;18.778;2023-02-18T15:55:14;15.40;;;8.00;;
52184;SDS011;38160;52.876;18.778;2023-02-18T15:58:00;13.30;;;7.40;;
52184;SDS011;38160;52.876;18.778;2023-02-18T16:00:46;15.60;;;8.00;;
52184;SDS011;38160;52.876;18.778;2023-02-18T16:03:26;17.10;;;7.80;;
52184;SDS011;38160;52.876;18.778;2023-02-18T16:06:11;14.60;;;7.30;;
52184;SDS011;38160;52.876;18.778;2023-02-18T16:09:42;18.40;;;7.10;;
52184;SDS011;38160;52.876;18.778;2023-02-18T16:12:21;16.00;;;7.80;;
52184;SDS011;38160;52.876;18.778;2023-02-18T16:15:13;17.80;;;7.80;;
52184;SDS011;38160;52.876;18.778;2023-02-18T16:18:01;14.20;;;7.30;;
52184;SDS011;38160;52.876;18.778;2023-02-18T16:20:40;17.20;;;7.60;;
52184;SDS011;38160;52.876;18.778;2023-02-18T16:23:29;17.80;;;8.00;;
52184;SDS011;38160;52.876;18.778;2023-02-18T16:26:18;19.30;;;8.40;;
52184;SDS011;38160;52.876;18.778;2023-02-18T16:29:00;16.30;;;9.10;;
52184;SDS011;38160;52.876;18.778;2023-02-18T16:31:44;19.20;;;9.70;;
52184;SDS011;38160;52.876;18.778;2023-02-18T16:34:20;23.10;;;10.40;;
52184;SDS011;38160;52.876;18.778;2023-02-18T16:36:57;19.10;;;9.50;;
52184;SDS011;38160;52.876;18.778;2023-02-18T16:39:51;18.00;;;8.70;;
52184;SDS011;38160;52.876;18.778;2023-02-18T16:42:29;20.10;;;8.90;;
52184;SDS011;38160;52.876;18.778;2023-02-18T16:45:10;16.40;;;8.10;;
52184;SDS011;38160;52.876;18.778;2023-02-18T16:47:47;19.50;;;9.20;;
52184;SDS011;38160;52.876;18.778;2023-02-18T16:50:23;26.20;;;9.50;;
52184;SDS011;38160;52.876;18.778;2023-02-18T16:53:04;17.10;;;9.00;;
52184;SDS011;38160;52.876;18.778;2023-02-18T16:55:40;20.70;;;10.10;;
52184;SDS011;38160;52.876;18.778;2023-02-18T16:58:17;17.40;;;9.60;;
52184;SDS011;38160;52.876;18.778;2023-02-18T17:00:54;18.50;;;10.20;;
52184;SDS011;38160;52.876;18.778;2023-02-18T17:03:31;18.80;;;11.50;;
52184;SDS011;38160;52.876;18.778;2023-02-18T17:06:07;17.40;;;10.50;;
52184;SDS011;38160;52.876;18.778;2023-02-18T17:08:43;21.10;;;12.10;;
52184;SDS011;38160;52.876;18.778;2023-02-18T17:11:24;20.10;;;12.40;;
52184;SDS011;38160;52.876;18.778;2023-02-18T17:14:04;20.40;;;11.70;;
52184;SDS011;38160;52.876;18.778;2023-02-18T17:24:08;24.10;;;14.10;;
52184;SDS011;38160;52.876;18.778;2023-02-18T17:30:31;24.90;;;14.70;;
52184;SDS011;38160;52.876;18.778;2023-02-18T17:34:06;29.10;;;14.50;;
52184;SDS011;38160;52.876;18.778;2023-02-18T17:36:46;27.60;;;14.80;;
52184;SDS011;38160;52.876;18.778;2023-02-18T17:39:22;24.20;;;14.20;;
52184;SDS011;38160;52.876;18.778;2023-02-18T17:41:58;25.40;;;14.80;;
52184;SDS011;38160;52.876;18.778;2023-02-18T17:44:34;24.30;;;14.40;;
52184;SDS011;38160;52.876;18.778;2023-02-18T17:47:10;22.10;;;14.40;;
52184;SDS011;38160;52.876;18.778;2023-02-18T17:49:47;20.20;;;12.90;;
52184;SDS011;38160;52.876;18.778;2023-02-18T17:52:26;24.10;;;13.20;;
52184;SDS011;38160;52.876;18.778;2023-02-18T17:55:18;26.10;;;14.80;;
52184;SDS011;38160;52.876;18.778;2023-02-18T17:57:59;28.10;;;15.00;;
52184;SDS011;38160;52.876;18.778;2023-02-18T18:00:39;27.90;;;15.10;;
52184;SDS011;38160;52.876;18.778;2023-02-18T18:03:21;27.20;;;15.20;;
52184;SDS011;38160;52.876;18.778;2023-02-18T18:06:05;26.30;;;16.00;;
52184;SDS011;38160;52.876;18.778;2023-02-18T18:09:33;24.90;;;14.30;;
52184;SDS011;38160;52.876;18.778;2023-02-18T18:28:06;27.80;;;14.80;;
52184;SDS011;38160;52.876;18.778;2023-02-18T18:31:08;24.60;;;17.10;;
52184;SDS011;38160;52.876;18.778;2023-02-18T18:33:49;24.00;;;15.80;;
